Mount Vernon, IA (52314)

7:39 PM CDT on August 30, 2015 (GMT -0500)
KIALISBO2 | | Change Station
CLOSE
Current Station
Personal Weather Station
Location: Lisbon, IA
Elevation: 856 ft
Nearby Weather Stations
Active Advisory: Dense Fog Advisory

Elev 856 ft 41.92 °N, 91.39 °W | Updated 4 seconds ago

Clear
Clear
70.7 °F
Feels Like 70.7 °F
N
0.0
Wind Variable Wind from East

Today
High -- | Low -- °F
--% Chance of Precip.
Yesterday
High -- | Low -- °F
Precip. -- in
6:29 AM 7:42 PM
Full, 98% visible
Pressure 29.99 in
Visibility 10.0 miles
Clouds Clear
Dew Point 67 °F
Humidity 87%
Rainfall 0.00 in
Snow Depth Not available.
UV 0 out of 12
Pollen 9.70 out of 12
Air Quality Not available.
Flu Activity Not available.
METAR KCID 302352Z 00000KT 10SM CLR 22/20 A3000 RMK AO2 SLP155 60000 T02220200 10233 20217 56012
Pressure 29.99 in
Visibility 10.0 miles
Clouds Clear
Dew Point 67 °F
Humidity 87%
Rainfall 0.00 in
Snow Depth Not available.
UV 0 out of 12
Pollen 9.70 out of 12
Air Quality Not available.
Flu Activity Not available.
METAR KCID 302352Z 00000KT 10SM CLR 22/20 A3000 RMK AO2 SLP155 60000 T02220200 10233 20217 56012

10-Day Weather Forecast

×

Almanac

Astronomy

Aug. 30, 2015 Rise Set
Actual Time
Civil Twilight
Nautical Twilight
Astronomical Twilight
Moon
Length of Visible Light
Length of Day
Tomorrow will be .
, % of the Moon is Illuminated

Today's Extremes

State Highs State Lows

Community

WunderPhotos

Upload Photos

1,851,111 photos uploaded!

WunderBlogs® & News

Nearby

Air Quality

  Air Quality AQ Index Pollutant
Not available.

Snow Depth

Station Depth Elevation

Earthquake Activity

City Distance Mag. Time & Date
Minimum magnitude displayed is 2.5.

Coastal Water Temperatures

Place Temperature

Stations

Nearby Weather Stations

Station Location Temp. Windchill Dew Point Humidity Wind Precip. Elev Updated Type
                   
Dense Fog Advisory
Statement as of 7:14 PM CDT on August 30, 2015

... Dense fog advisory in effect from 2 am to 8 am CDT Monday...

The National Weather Service in Quad Cities has issued a dense
fog advisory... which is in effect from 2 am to 8 am CDT Monday.

* Visibilities... as low as 100 feet to a quarter mile

* timing... developing after midnight and continuing through the
early morning commute. Visibilities improving after 8 am.

* Impacts... travel will be difficult and potentially dangerous
with very limited sight distance between vehicles and other
objects.

Precautionary/preparedness actions...

A dense fog advisory means visibilities will frequently be
reduced to less than one quarter mile. If driving... slow down...
use your headlights... and leave plenty of distance ahead of you.



Sheets